Погода Кибунгона неделю

Кибунго, Руанда

25 июня-01 июля
  • 25июня
    Сегодня
    +13°
    +27°
    Ясно и безоблачно
    ВремяПогодаТемператураВлажностьДавлениеВетер, м/сВероятность осадков
    02:00Ясно и безоблачно+18°C66 %636 мм1.7 м/с5 %
    05:00Ясно и безоблачно+16°C77 %636 мм1.6 м/с5 %
    08:00Ясно и безоблачно+18°C57 %637 мм1.9 м/с5 %
    11:00Ясно и безоблачно+24°C31 %638 мм3.3 м/с5 %
    14:00Ясно и безоблачно+27°C27 %637 мм2.1 м/с5 %
    17:00Ясно и безоблачно+26°C29 %636 мм2.2 м/с5 %
    20:00Ясно и безоблачно+22°C40 %635 мм3.1 м/с5 %
    23:00Ясно и безоблачно+20°C45 %635 мм2.7 м/с5 %
  • 26июня
    Среда
    +14°
    +27°
    Ясно и безоблачно
    ВремяПогодаТемператураВлажностьДавлениеВетер, м/сВероятность осадков
    02:00Ясно и безоблачно+16°C59 %634 мм1.7 м/с5 %
    05:00Ясно и безоблачно+15°C72 %634 мм1.7 м/с5 %
    08:00Ясно и безоблачно+17°C54 %637 мм1.8 м/с5 %
    11:00Ясно и безоблачно+24°C31 %638 мм3.3 м/с5 %
    14:00Ясно и безоблачно+27°C27 %636 мм2.6 м/с5 %
    17:00Ясно и безоблачно+26°C30 %635 мм2.4 м/с5 %
    20:00Ясно и безоблачно+21°C40 %635 мм3.4 м/с5 %
    23:00Ясно и безоблачно+19°C47 %636 мм3.1 м/с5 %
  • 27июня
    Четверг
    +14°
    +28°
    Облачно с прояснениями
    ВремяПогодаТемператураВлажностьДавлениеВетер, м/сВероятность осадков
    02:00Ясно и безоблачно+17°C56 %635 мм1.8 м/с5 %
    05:00Ясно и безоблачно+16°C75 %635 мм1.7 м/с5 %
    08:00Небольшая облачность+18°C54 %637 мм1.7 м/с5 %
    11:00Небольшая облачность+24°C31 %638 мм4.2 м/с5 %
    14:00Облачно с прояснениями+27°C27 %637 мм3.1 м/с5 %
    17:00Облачно с прояснениями+26°C29 %636 мм3.8 м/с5 %
    20:00Облачно с прояснениями+21°C41 %636 мм2.9 м/с5 %
    23:00Облачно с прояснениями+19°C49 %636 мм2.9 м/с5 %
  • 28июня
    Пятница
    +15°
    +27°
    Облачно с прояснениями
    ВремяПогодаТемператураВлажностьДавлениеВетер, м/сВероятность осадков
    02:00Облачно с прояснениями+17°C64 %635 мм1.8 м/с5 %
    05:00Ясно и безоблачно+16°C64 %635 мм1.2 м/с5 %
    08:00Практически безоблачно+18°C52 %637 мм1.6 м/с5 %
    11:00Практически безоблачно+24°C35 %638 мм3.1 м/с5 %
    14:00Облачно с прояснениями+26°C31 %636 мм2.2 м/с5 %
    17:00Ясно и безоблачно+26°C32 %636 мм3.0 м/с5 %
    20:00Ясно и безоблачно+22°C45 %635 мм2.6 м/с5 %
    23:00Небольшая облачность+20°C49 %635 мм2.7 м/с5 %
  • 29июня
    Суббота
    +17°
    +29°
    Облачно с прояснениями
    ВремяПогодаТемператураВлажностьДавлениеВетер, м/сВероятность осадков
    02:00Облачно с прояснениями+18°C63 %634 мм1.4 м/с5 %
    05:00Облачно с прояснениями+16°C73 %634 мм1.3 м/с5 %
    08:00Облачно с прояснениями+19°C55 %637 мм1.7 м/с5 %
    11:00Облачно с прояснениями+25°C31 %638 мм2.5 м/с5 %
    14:00Облачно с прояснениями+28°C27 %636 мм1.8 м/с5 %
    17:00Облачно с прояснениями+28°C28 %635 мм1.8 м/с5 %
    20:00Облачно с прояснениями+23°C41 %635 мм2.0 м/с5 %
    23:00Облачно с прояснениями+21°C50 %635 мм2.3 м/с5 %
Мы используем cookies
Соглашаюсь